Date,TemperatureHighF,TemperatureAvgF,TemperatureLowF,DewpointHighF,DewpointAvgF,DewpointLowF,HumidityHigh,HumidityAvg,HumidityLow,PressureMaxIn,PressureMinIn,WindSpeedMaxMPH,WindSpeedAvgMPH,GustSpeedMaxMPH,PrecipitationSumIn
2014-1-1,66,48,32,27,23,12,66,40,19,30.00,29.72,15,3,15,0.00
2014-1-2,65,51,37,44,16,5,97,26,17,30.04,29.74,11,3,11,0.00
2014-1-3,63,47,37,28,22,17,56,39,20,29.94,29.59,9,3,9,0.00
2014-1-4,60,46,35,31,24,6,66,46,23,29.82,29.48,15,3,15,0.00
2014-1-5,58,43,31,19,8,-2,25,23,20,29.95,29.67,24,6,24,0.00
2014-1-6,62,46,35,19,10,0,28,22,19,30.10,29.75,20,6,20,0.00
2014-1-7,59,44,32,22,16,4,46,33,21,30.00,29.69,8,2,8,0.00
2014-1-8,60,44,34,36,19,14,97,38,21,29.88,29.59,10,3,10,0.00
2014-1-9,58,43,33,23,20,16,57,42,22,29.89,29.56,10,2,10,0.00
2014-1-10,60,43,32,29,22,18,62,46,24,29.86,29.61,8,2,8,0.00
2014-1-11,64,47,31,30,26,22,75,49,22,29.95,29.65,9,2,9,0.00
2014-1-12,65,49,37,31,22,8,68,39,17,29.97,29.57,14,3,14,0.00
2014-1-13,62,45,0,100,16,3,43,31,2,34.28,29.77,57,3,57,0.59
2014-1-14,68,47,28,22,17,10,57,33,15,30.08,29.81,19,3,19,0.00
2014-1-15,68,51,34,23,18,11,46,29,15,30.11,29.75,11,3,11,0.00
2014-1-16,67,53,36,21,16,7,45,24,16,29.98,29.72,15,4,15,0.00
2014-1-17,68,50,30,21,15,7,54,27,15,30.01,29.69,10,3,11,0.00
2014-1-18,70,52,38,22,15,10,36,24,14,29.94,29.65,12,4,12,0.00
2014-1-19,68,52,38,22,15,8,36,24,15,29.98,29.65,11,4,11,0.00
2014-1-20,69,53,38,23,18,14,45,27,15,29.98,29.72,14,4,14,0.00
2014-1-21,68,55,45,26,17,10,31,23,16,30.06,29.74,14,4,14,0.00
2014-1-22,67,51,40,26,21,18,47,32,16,29.88,29.52,10,2,10,0.00
2014-1-23,61,48,33,22,18,12,48,30,20,29.79,29.59,22,6,22,0.00
2014-1-24,60,51,43,21,17,13,35,25,21,29.99,29.88,16,6,17,0.00
2014-1-25,67,52,43,22,17,13,36,25,16,30.03,29.59,11,3,12,0.00
2014-1-26,65,49,38,23,18,13,46,31,17,29.88,29.56,8,3,8,0.00
2014-1-27,65,49,37,25,19,9,55,32,17,29.79,29.50,11,2,11,0.00
2014-1-28,66,49,34,22,16,9,49,28,17,29.83,29.58,9,2,10,0.00
2014-1-29,65,49,35,25,17,7,49,29,17,29.89,29.56,9,2,9,0.00
2014-1-30,62,51,39,26,23,21,53,35,22,29.74,29.40,15,4,16,0.00
2014-1-31,54,47,38,41,34,24,99,66,31,29.53,29.33,19,4,19,0.13
2014-2-1,53,42,30,39,26,11,99,59,21,29.64,29.40,15,3,15,0.00
2014-2-2,52,40,31,23,19,16,61,44,26,29.80,29.48,14,4,14,0.00
2014-2-3,48,37,29,27,22,15,78,55,29,29.72,29.40,13,2,13,0.00
2014-2-4,53,40,30,30,25,15,84,59,23,29.75,29.45,20,3,20,0.00
2014-2-5,54,41,33,31,28,25,76,60,35,29.85,29.58,9,2,9,0.00
2014-2-6,48,40,30,33,29,24,79,66,53,29.84,29.57,11,2,11,0.00
2014-2-7,50,42,35,42,36,32,99,81,57,29.83,29.55,8,2,9,0.19
2014-2-8,62,45,34,40,36,32,99,73,35,29.96,29.62,8,2,8,0.00
2014-2-9,68,51,38,40,36,28,87,61,23,29.91,29.46,12,2,12,0.00
2014-2-10,67,52,39,39,35,28,78,54,26,29.77,29.44,11,3,11,0.00
2014-2-11,65,53,44,33,26,12,55,37,17,29.74,29.47,13,4,13,0.00
2014-2-12,69,53,39,30,22,10,49,32,15,29.85,29.57,11,3,11,0.00
2014-2-13,77,57,42,32,28,22,55,36,14,29.81,29.45,9,3,9,0.00
2014-2-14,77,59,45,32,28,22,51,33,15,29.75,29.53,11,3,11,0.00
2014-2-15,78,60,46,31,26,20,47,30,14,29.77,29.50,11,3,11,0.00
2014-2-16,69,55,45,32,27,23,50,36,18,29.81,29.55,8,2,8,0.00
2014-2-17,74,58,38,28,22,17,51,28,13,29.87,29.50,14,4,14,0.00
2014-2-18,72,56,44,31,26,18,52,33,13,29.74,29.47,9,3,10,0.00
2014-2-19,73,57,43,29,22,12,45,28,13,29.65,29.29,22,5,23,0.00
2014-2-20,64,49,36,20,12,4,30,23,18,29.76,29.57,21,5,21,0.00
2014-2-21,69,51,36,20,13,5,31,23,15,29.82,29.46,14,3,14,0.00
2014-2-22,69,52,-6,21,15,-18,54,24,15,29.71,29.41,11,3,11,0.00
2014-2-23,71,53,42,23,18,14,37,27,14,29.75,29.50,11,3,11,0.00
2014-2-24,73,56,42,24,20,17,40,27,13,29.79,29.45,11,4,11,0.00
2014-2-25,71,54,44,31,25,22,56,34,17,29.74,29.47,11,3,11,0.00
2014-2-26,70,55,42,41,30,26,71,41,19,29.76,29.45,11,4,11,0.00
2014-2-27,66,52,40,41,35,24,80,55,22,29.63,29.39,27,5,27,0.00
2014-2-28,62,54,40,49,39,32,84,60,33,29.60,29.37,17,4,17,0.00
2014-3-1,54,48,38,51,46,38,99,95,83,29.60,29.40,21,4,21,1.51
2014-3-2,55,45,38,46,40,37,99,85,55,29.81,29.57,8,2,8,0.17
2014-3-3,67,51,40,44,40,36,96,69,36,29.85,29.53,9,2,9,0.00
2014-3-4,66,53,45,44,40,35,77,61,34,29.77,29.49,9,3,9,0.00
2014-3-5,70,53,35,37,32,23,89,51,18,29.82,29.63,11,2,11,0.00
2014-3-6,70,55,44,35,31,26,66,42,20,29.91,29.64,11,3,11,0.00
2014-3-7,71,56,42,38,28,17,70,39,14,29.78,29.50,17,4,17,0.00
2014-3-8,65,55,46,28,24,19,47,31,17,30.02,29.75,23,8,23,0.00
2014-3-9,72,56,37,30,22,15,70,32,13,30.13,29.77,24,5,24,0.00
2014-3-10,72,55,42,45,23,16,97,31,14,29.97,29.63,12,4,12,0.00
2014-3-11,70,54,38,30,22,13,62,33,15,29.84,29.57,17,5,20,0.00
2014-3-12,69,55,44,26,19,11,37,24,15,29.93,29.68,19,7,23,0.00
2014-3-13,67,55,44,35,28,23,50,36,21,29.86,29.58,14,3,14,0.00
2014-3-14,68,56,47,40,36,31,71,48,28,29.86,29.61,14,3,14,0.00
2014-3-15,70,57,37,37,24,15,75,34,14,29.97,29.70,25,7,25,0.00
2014-3-16,75,59,39,26,18,7,33,20,13,30.06,29.76,21,4,24,0.00
2014-3-17,73,56,42,24,19,15,43,25,13,29.91,29.40,20,5,20,0.00
2014-3-18,67,53,40,24,14,6,41,21,16,29.78,29.49,18,5,19,0.00
2014-3-19,71,55,42,20,14,7,25,20,14,29.91,29.70,13,4,13,0.00
2014-3-20,73,56,41,21,16,8,34,21,13,29.97,29.60,11,4,11,0.00
2014-3-21,72,54,42,22,18,13,35,24,13,29.75,29.51,16,4,57,0.00
2014-3-22,72,57,42,32,22,16,46,28,14,29.80,29.58,12,4,12,0.00
2014-3-23,74,59,46,34,26,18,55,32,13,29.92,29.69,11,4,11,0.00
2014-3-24,77,63,44,27,21,14,43,21,13,29.95,29.68,14,4,14,0.00
2014-3-25,78,62,46,27,20,10,31,20,13,29.87,29.50,16,4,16,0.00
2014-3-26,65,56,46,35,29,22,58,37,22,29.69,29.48,28,7,28,0.00
2014-3-27,63,50,35,37,31,27,87,51,27,29.88,29.66,20,4,20,0.00
2014-3-28,70,53,38,30,24,18,69,37,14,29.99,29.77,14,3,14,0.00
2014-3-29,76,59,44,29,24,20,44,28,14,30.06,29.65,15,4,15,0.00
2014-3-30,71,56,42,36,23,15,59,31,14,29.83,29.56,29,6,29,0.00
2014-3-31,68,56,42,23,18,15,36,24,15,29.91,29.64,24,7,24,0.00
2014-4-1,65,57,44,31,20,8,49,25,17,29.79,29.57,25,8,25,0.00
2014-4-2,58,47,33,37,28,16,95,52,22,29.85,29.58,22,6,22,0.01
2014-4-3,64,45,29,37,28,16,99,61,20,29.94,29.75,13,2,13,0.07
2014-4-4,68,52,38,28,21,13,57,33,15,29.95,29.59,15,4,15,0.00
2014-4-5,65,52,41,32,20,10,53,30,18,29.83,29.59,17,4,17,0.00
2014-4-6,74,56,37,30,24,18,66,33,13,29.92,29.65,17,4,17,0.00
2014-4-7,79,61,38,28,23,16,59,25,13,30.00,29.81,14,4,14,0.00
2014-4-8,84,66,49,32,23,16,30,20,12,30.04,29.75,14,4,14,0.00
2014-4-9,84,66,52,32,22,14,26,19,12,29.98,29.67,13,4,13,0.00
2014-4-10,86,67,51,32,22,14,25,18,12,29.93,29.62,15,4,16,0.00
2014-4-11,84,68,54,31,22,14,25,18,12,29.86,29.57,17,4,17,0.00
2014-4-12,78,64,49,31,24,15,46,23,13,29.70,29.42,20,5,20,0.00
2014-4-13,77,61,44,31,22,15,42,23,13,29.81,29.44,28,7,28,0.00
2014-4-14,71,58,44,21,17,9,26,20,14,29.96,29.80,23,7,23,0.00
2014-4-15,77,60,43,26,17,7,26,19,13,29.96,29.56,11,3,11,0.00
2014-4-16,82,64,47,26,20,-26,27,19,12,29.75,29.45,13,4,13,0.00
2014-4-17,84,67,52,32,24,18,34,21,12,29.82,29.55,13,4,13,0.00
2014-4-18,74,61,54,46,32,20,66,36,16,29.81,29.71,19,4,19,0.00
2014-4-19,76,63,50,45,40,33,70,45,23,29.86,29.63,20,4,20,0.00